Latest Weather Observations for Casey (Wilkins Runway)*

IDT60801

Issued at 6:01 pm EST Tuesday 21 April 2015 (issued every 30 minutes, with the page automatically refreshed every 10 minutes)

About weather observations | Map of weather stations | Latest weather observations for ANT | Other Formats
Station Details ID: 300050 Name: WILKINS RUNWAY EAST Lat: -66.68 Lon: 111.53 Height: 753.0 m
Data from the previous 72 hours. | See also: Recent months for locations in Antarctica
Date/Time
EST
Temp
°C
App
Temp
°C
Dew
Point
Rel
Hum
%
Delta-T
°C
Wind Press
QNH
hPa
Press
MSL
hPa
Rain
since 9 am
mm
Dir
 
Spd
km/h
Gust
km/h
Spd
kts
Gust
kts
21/06:00pm -18.7 -29.4 -22.0 75 - E 37 46 20 25 964.3 - -
21/05:30pm -17.9 -28.9 -21.1 76 - E 39 57 21 31 964.2 - -
21/05:00pm -17.6 -29.0 -20.6 77 - E 41 48 22 26 964.6 - -
21/04:30pm -17.7 -29.1 -20.7 77 - E 41 54 22 29 964.9 - -
21/04:00pm -17.8 -29.2 -20.5 79 - E 41 50 22 27 965.2 - -
21/03:30pm -17.9 -29.7 -20.6 79 - E 43 54 23 29 965.3 - -
21/03:00pm -17.9 -29.3 -20.3 81 - E 41 50 22 27 965.6 - -
21/02:30pm -18.4 -30.4 -20.8 81 - E 44 57 24 31 965.6 - -
21/02:00pm -18.6 -30.6 -20.9 82 - E 44 50 24 27 966.1 - -
21/01:30pm -18.4 -30.4 -20.6 83 - E 44 54 24 29 966.3 - -
21/01:00pm -18.6 -31.3 -20.8 83 - E 48 56 26 30 966.2 - -
21/12:30pm -18.7 -31.8 -20.9 83 - E 50 67 27 36 966.6 - -
21/12:12pm -18.9 -32.0 -21.2 82 - E 50 69 27 37 966.4 - -
21/12:00pm -18.7 -31.4 -21.0 82 - E 48 65 26 35 966.8 - -
21/11:56am -18.7 -31.1 -21.1 81 - E 46 65 25 35 966.9 - -
21/11:30am -18.8 -31.2 -21.1 82 - E 46 56 25 30 966.9 - -
21/11:00am -18.5 -31.2 -20.8 82 - E 48 59 26 32 967.1 - -
21/10:33am -18.3 -30.6 -20.6 82 - E 46 65 25 35 967.1 - -
21/10:30am -18.4 -31.1 -20.6 83 - E 48 65 26 35 967.2 - -
21/10:09am -17.7 -30.0 -20.4 79 - E 46 65 25 35 967.6 - -
21/10:00am -18.0 -29.4 -20.4 81 - E 41 57 22 31 967.2 - -
21/09:30am -17.9 -28.9 -20.6 79 - E 39 57 21 31 967.8 - -
21/09:23am -17.7 -28.7 -20.7 77 - E 39 57 21 31 968.1 - -
21/09:00am -17.9 -29.7 -20.3 81 - E 43 54 23 29 967.6 - -
21/08:30am -17.5 -28.1 -20.0 81 - E 37 44 20 24 968.0 - -
21/08:00am -17.7 -28.7 -20.4 79 - E 39 52 21 28 968.0 - -
21/07:30am -17.4 -28.0 -19.9 81 - E 37 46 20 25 968.0 - -
21/07:00am -17.4 -27.6 -19.7 82 - E 35 43 19 23 968.1 - -
21/06:30am -17.4 -28.0 -19.6 83 - E 37 43 20 23 968.1 - -
21/06:00am -17.1 -26.9 -19.3 83 - E 33 48 18 26 968.1 - -
21/05:49am -17.0 -27.2 -19.3 82 - E 35 54 19 29 968.1 - -
21/05:30am -17.2 -26.5 -19.7 81 - E 30 46 16 25 968.2 - -
21/05:00am -17.0 -26.8 -19.3 82 - E 33 54 18 29 968.1 - -
21/04:57am -16.7 -26.5 -19.2 81 - E 33 54 18 29 968.1 - -
21/04:30am -16.9 -26.7 -19.1 83 - E 33 46 18 25 968.0 - -
21/04:00am -16.7 -26.9 -19.0 82 - E 35 46 19 25 967.8 - -
21/03:30am -16.9 -26.2 -19.7 79 - E 30 35 16 19 968.1 - -
21/03:00am -16.9 -26.7 -19.4 81 - E 33 41 18 22 968.1 - -
21/02:30am -16.7 -26.5 -18.9 83 - E 33 41 18 22 968.0 - -
21/02:00am -16.9 -26.2 -19.7 79 - E 30 35 16 19 968.1 - -
21/01:39am -16.4 -26.0 -19.3 78 - E 32 50 17 27 968.0 - -
21/01:30am -16.2 -25.4 -18.8 80 - E 30 39 16 21 967.8 - -
21/01:00am -16.2 -24.0 -19.6 75 - E 22 30 12 16 968.0 - -
21/12:30am -16.6 -21.5 -19.5 78 - SSE 7 11 4 6 968.1 - -
21/12:00am -16.5 -21.2 -19.0 81 - E 6 17 3 9 968.1 - -
 
Date/Time
EST
Temp
°C
App
Temp
°C
Dew
Point
Rel
Hum
%
Delta-T
°C
Wind Press
QNH
hPa
Press
MSL
hPa
Rain
since 9 am
mm
Dir
 
Spd
km/h
Gust
km/h
Spd
kts
Gust
kts
20/11:30pm -17.6 -21.2 -20.6 77 - CALM 0 0 0 0 968.1 - -
20/11:00pm -16.9 -20.5 -19.4 81 - CALM 0 0 0 0 968.1 - -
20/10:30pm -16.7 -20.3 -19.5 79 - CALM 0 0 0 0 967.8 - -
20/10:00pm -17.6 -22.5 -20.3 79 - E 7 15 4 8 967.8 - -
20/09:30pm -17.1 -21.1 -20.6 74 - SE 2 7 1 4 967.6 - -
20/09:00pm -17.9 -21.5 -21.5 73 - CALM 0 0 0 0 967.3 - -
20/08:30pm -16.6 -20.2 -19.8 76 - CALM 0 0 0 0 967.0 - -
20/08:00pm -18.1 -23.8 -21.3 76 - ENE 11 15 6 8 966.7 - -
20/07:30pm -18.3 -25.7 -21.8 74 - E 20 24 11 13 966.3 - -
20/07:00pm -19.0 -25.1 -22.0 77 - ENE 13 17 7 9 966.0 - -
20/06:30pm -19.6 -27.1 -23.0 74 - E 20 24 11 13 966.0 - -
20/06:00pm -20.8 -26.6 -24.2 74 - ENE 11 13 6 7 966.0 - -
20/05:30pm -21.0 -27.9 -24.2 75 - ENE 17 20 9 11 965.8 - -
20/05:00pm -22.6 -28.5 -26.4 71 - ENE 11 13 6 7 966.0 - -
20/04:30pm -22.7 -27.6 -27.8 63 - ENE 6 13 3 7 965.9 - -
20/04:00pm -22.5 -26.3 -27.1 66 - CALM 0 0 0 0 965.9 - -
20/03:30pm -21.7 -25.5 -27.5 59 - CALM 0 0 0 0 965.9 - -
20/03:00pm -22.5 -26.3 -28.1 60 - CALM 0 0 0 0 966.1 - -
20/02:30pm -22.3 -26.1 -28.6 57 - CALM 0 0 0 0 965.9 - -
20/02:00pm -25.0 -28.8 -29.8 64 - CALM 0 0 0 0 966.2 - -
20/01:30pm -22.6 -26.4 -27.0 67 - CALM 0 0 0 0 966.3 - -
20/01:00pm -22.6 -26.4 -28.6 58 - CALM 0 0 0 0 966.4 - -
20/12:30pm -24.0 -27.8 -28.2 68 - CALM 0 0 0 0 966.2 - -
20/12:00pm -25.2 -29.0 -30.2 63 - CALM 0 0 0 0 966.1 - -
20/11:30am -25.4 -29.2 -30.7 61 - CALM 0 0 0 0 966.3 - -
20/11:00am -25.8 -30.4 -30.9 62 - E 4 15 2 8 966.1 - -
20/10:30am -25.8 -29.6 -30.9 62 - CALM 0 7 0 4 966.0 - -
20/10:00am -26.4 -30.6 -31.0 65 - E 2 9 1 5 966.3 - -
20/09:30am -26.8 -30.6 -31.0 68 - CALM 0 0 0 0 966.4 - -
20/09:00am -24.8 -28.6 -29.4 66 - CALM 0 19 0 10 966.4 - -
20/08:30am -23.3 -30.9 -29.4 57 - NE 20 24 11 13 966.4 - -
20/08:00am -24.4 -32.4 -30.1 59 - NE 22 22 12 12 966.4 - -
20/07:30am -23.7 -31.7 -29.6 58 - NE 22 26 12 14 966.2 - -
20/07:00am -24.9 -32.6 -31.3 55 - NE 20 24 11 13 966.3 - -
20/06:30am -25.7 -32.0 -32.4 53 - NE 13 17 7 9 966.1 - -
20/06:00am -26.9 -31.2 -32.8 57 - NE 2 13 1 7 966.1 - -
20/05:30am -26.2 -30.1 -31.6 60 - CALM 0 11 0 6 966.0 - -
20/05:00am -26.8 -32.4 -32.2 60 - ENE 9 17 5 9 966.0 - -
20/04:30am -26.7 -30.6 -31.9 61 - CALM 0 0 0 0 965.9 - -
20/04:00am -26.6 -30.5 -31.7 62 - CALM 0 0 0 0 966.2 - -
20/03:30am -26.9 -30.8 -32.4 60 - CALM 0 0 0 0 966.4 - -
20/03:00am -26.7 -32.6 -31.3 65 - NE 11 19 6 10 966.6 - -
20/02:30am -27.0 -30.9 -31.5 66 - CALM 0 0 0 0 966.6 - -
20/02:00am -26.9 -30.8 -31.8 63 - CALM 0 0 0 0 966.7 - -
20/01:30am -27.5 -31.4 -31.7 67 - CALM 0 0 0 0 966.7 - -
20/01:00am -26.5 -30.3 -31.2 64 - CALM 0 19 0 10 966.7 - -
20/12:30am -25.9 -33.4 -31.0 62 - NE 19 20 10 11 966.8 - -
20/12:00am -26.9 -30.8 -31.5 65 - CALM 0 0 0 0 966.6 - -
 
Date/Time
EST
Temp
°C
App
Temp
°C
Dew
Point
Rel
Hum
%
Delta-T
°C
Wind Press
QNH
hPa
Press
MSL
hPa
Rain
since 9 am
mm
Dir
 
Spd
km/h
Gust
km/h
Spd
kts
Gust
kts
19/11:30pm -26.9 -30.8 -31.3 66 - CALM 0 0 0 0 966.4 - -
19/11:00pm -26.2 -30.0 -30.9 65 - CALM 0 0 0 0 966.3 - -
19/10:30pm -26.6 -33.3 -31.3 64 - E 15 19 8 10 966.3 - -
19/10:00pm -26.0 -32.7 -30.4 66 - ENE 15 17 8 9 966.2 - -
19/09:30pm -24.7 -32.1 -29.5 64 - ENE 19 20 10 11 966.1 - -
19/09:00pm -24.3 -31.7 -29.5 62 - ENE 19 26 10 14 966.0 - -
19/08:30pm -23.6 -31.2 -28.5 64 - ENE 20 26 11 14 965.8 - -
19/08:00pm -23.2 -30.2 -27.9 65 - ENE 17 20 9 11 965.5 - -
19/07:30pm -22.9 -30.5 -27.8 64 - E 20 26 11 14 965.3 - -
19/07:00pm -22.6 -31.3 -27.3 65 - ENE 26 32 14 17 964.8 - -
19/06:30pm -22.4 -32.8 -27.0 66 - E 35 41 19 22 964.6 - -
19/06:00pm -21.4 -32.2 -26.5 63 - E 37 44 20 24 964.0 - -
19/05:58pm -21.0 -31.8 -26.1 64 - E 37 46 20 25 963.9 - -
19/05:52pm -21.9 -30.6 -25.7 71 - NE 26 48 14 26 963.9 - -
19/05:30pm -22.3 -34.8 -25.9 72 - E 46 54 25 29 963.3 - -
19/05:00pm -22.2 -34.3 -26.0 71 - E 44 54 24 29 963.0 - -
19/04:30pm -22.3 -34.4 -25.9 72 - E 44 52 24 28 962.8 - -
19/04:00pm -22.5 -35.0 -26.4 70 - E 46 59 25 32 962.9 - -
19/03:30pm -22.5 -34.1 -26.4 70 - E 41 54 22 29 962.4 - -
19/03:00pm -21.3 -33.4 -25.4 69 - E 44 61 24 33 962.2 - -
19/02:30pm -22.9 -36.5 -26.4 73 - E 52 61 28 33 961.8 - -
19/02:00pm -23.3 -37.9 -26.6 74 - E 57 80 31 43 961.4 - -
19/01:52pm -23.2 -38.2 -26.5 74 - E 59 80 32 43 961.2 - -
19/01:30pm -23.5 -38.9 -26.7 75 - E 61 76 33 41 960.8 - -
19/01:17pm -23.6 -39.7 -26.8 75 - E 65 87 35 47 960.5 - -
19/01:00pm -24.1 -41.0 -27.1 76 - E 69 82 37 44 960.3 - -
19/12:30pm -24.4 -40.9 -27.3 77 - E 67 80 36 43 959.8 - -
19/12:00pm -24.5 -41.6 -27.2 78 - E 70 85 38 46 959.6 - -
19/11:30am -24.9 -42.4 -27.6 78 - E 72 89 39 48 959.2 - -
19/11:00am -24.9 -42.7 -27.6 78 - E 74 85 40 46 958.6 - -
19/10:30am -25.4 -44.0 -28.1 78 - E 78 93 42 50 958.3 - -
19/10:00am -25.2 -44.2 -27.9 78 - E 80 95 43 51 957.7 - -
19/09:30am -25.3 -44.7 -28.0 78 - E 82 95 44 51 958.2 - -
19/09:00am -25.7 -45.7 -28.5 77 - E 85 98 46 53 957.7 - -
19/08:30am -25.3 -45.2 -28.0 78 - E 85 96 46 52 957.6 - -
19/08:00am -25.3 -45.2 -28.0 78 - E 85 98 46 53 957.6 - -
19/07:30am -25.5 -45.5 -28.3 77 - E 85 96 46 52 957.3 - -
19/07:00am -25.7 -45.3 -28.5 77 - E 83 93 45 50 957.6 - -
19/06:30am -25.7 -45.1 -28.5 77 - E 82 95 44 51 957.4 - -
19/06:00am -25.7 -45.3 -28.5 77 - E 83 93 45 50 957.5 - -
19/05:30am -26.0 -45.6 -28.8 77 - E 83 95 45 51 957.5 - -
19/05:00am -25.3 -43.9 -28.1 77 - E 78 87 42 47 958.2 - -
19/04:30am -26.4 -44.7 -29.3 76 - E 76 83 41 45 958.5 - -

Other Formats:

Comma delimited format used in spreadsheet applications
http://www.bom.gov.au/fwo/IDT60803/IDT60803.89615.axf

JavaScript Object Notation format (JSON) in row-major order
http://www.bom.gov.au/fwo/IDT60803/IDT60803.89615.json